Darien, Wisconsin
Current Conditions -  °F | °C
As of 9:45 AM on Thursday 18 Dec 2014 (Local Time) from KJVL Reporting Station
Overcast Overcast  
Wind Chill: 16°   Ceiling: 2300
Heat Index: 23°   Visibility: 10mi
Dew Point: 19°   Wind: 6mph
Humidity: 86%   Direction: 290°WNW
Pressure: 30.3"   Gusts: NA
Location:  42.6°N, 88.71°W
Report Text: KJVL 181545Z 29005KT 10SM OVC023 M05/M07 A3030
Loading
Personal Weather Stations






























Interactive Weather Map New forecast layout! Learn more

10-Day Weather Forecast

Advertisements
Track Severe Weather on mobile